sensor_id;sensor_type;location;lat;lon;timestamp;P1;durP1;ratioP1;P2;durP2;ratioP2
17504;SDS011;8870;50.950;11.762;2022-09-24T00:01:23;1.58;;;1.00;;
17504;SDS011;8870;50.950;11.762;2022-09-24T00:06:55;1.35;;;1.00;;
17504;SDS011;8870;50.950;11.762;2022-09-24T00:12:29;1.67;;;1.00;;
17504;SDS011;8870;50.950;11.762;2022-09-24T00:17:48;1.80;;;1.10;;
17504;SDS011;8870;50.950;11.762;2022-09-24T00:23:20;2.60;;;1.10;;
17504;SDS011;8870;50.950;11.762;2022-09-24T00:28:41;1.65;;;1.10;;
17504;SDS011;8870;50.950;11.762;2022-09-24T00:34:12;1.02;;;1.00;;
17504;SDS011;8870;50.950;11.762;2022-09-24T00:39:30;2.40;;;1.17;;
17504;SDS011;8870;50.950;11.762;2022-09-24T00:45:04;1.33;;;1.23;;
17504;SDS011;8870;50.950;11.762;2022-09-24T00:50:26;3.60;;;1.10;;
17504;SDS011;8870;50.950;11.762;2022-09-24T00:56:00;3.15;;;1.30;;
17504;SDS011;8870;50.950;11.762;2022-09-24T01:01:25;1.20;;;1.10;;
17504;SDS011;8870;50.950;11.762;2022-09-24T01:06:57;2.05;;;1.02;;
17504;SDS011;8870;50.950;11.762;2022-09-24T01:12:17;2.20;;;1.20;;
17504;SDS011;8870;50.950;11.762;2022-09-24T01:18:03;2.13;;;1.10;;
17504;SDS011;8870;50.950;11.762;2022-09-24T01:23:34;1.45;;;1.20;;
17504;SDS011;8870;50.950;11.762;2022-09-24T01:29:30;1.48;;;1.10;;
17504;SDS011;8870;50.950;11.762;2022-09-24T01:34:56;1.80;;;1.30;;
17504;SDS011;8870;50.950;11.762;2022-09-24T01:40:31;1.58;;;1.20;;
17504;SDS011;8870;50.950;11.762;2022-09-24T01:45:54;1.25;;;1.15;;
17504;SDS011;8870;50.950;11.762;2022-09-24T01:51:28;2.57;;;1.40;;
17504;SDS011;8870;50.950;11.762;2022-09-24T01:56:52;1.30;;;1.20;;
17504;SDS011;8870;50.950;11.762;2022-09-24T02:02:31;2.28;;;1.40;;
17504;SDS011;8870;50.950;11.762;2022-09-24T02:08:03;1.45;;;1.35;;
17504;SDS011;8870;50.950;11.762;2022-09-24T02:13:38;1.50;;;1.40;;
17504;SDS011;8870;50.950;11.762;2022-09-24T02:19:04;1.40;;;1.30;;
17504;SDS011;8870;50.950;11.762;2022-09-24T02:24:41;1.40;;;1.30;;
17504;SDS011;8870;50.950;11.762;2022-09-24T02:30:04;2.03;;;1.70;;
17504;SDS011;8870;50.950;11.762;2022-09-24T02:35:39;1.65;;;1.42;;
17504;SDS011;8870;50.950;11.762;2022-09-24T02:40:57;1.60;;;1.50;;
17504;SDS011;8870;50.950;11.762;2022-09-24T02:46:29;2.00;;;1.40;;
17504;SDS011;8870;50.950;11.762;2022-09-24T02:51:51;1.60;;;1.50;;
17504;SDS011;8870;50.950;11.762;2022-09-24T02:57:26;4.55;;;1.70;;
17504;SDS011;8870;50.950;11.762;2022-09-24T03:02:44;2.78;;;1.77;;
17504;SDS011;8870;50.950;11.762;2022-09-24T03:08:18;3.58;;;1.50;;
17504;SDS011;8870;50.950;11.762;2022-09-24T03:13:51;2.75;;;1.58;;
17504;SDS011;8870;50.950;11.762;2022-09-24T03:19:10;2.50;;;1.80;;
17504;SDS011;8870;50.950;11.762;2022-09-24T03:24:44;2.80;;;1.88;;
17504;SDS011;8870;50.950;11.762;2022-09-24T03:30:02;2.05;;;1.80;;
17504;SDS011;8870;50.950;11.762;2022-09-24T03:35:47;1.80;;;1.70;;
17504;SDS011;8870;50.950;11.762;2022-09-24T03:41:08;2.75;;;1.90;;
17504;SDS011;8870;50.950;11.762;2022-09-24T03:46:41;2.03;;;1.75;;
17504;SDS011;8870;50.950;11.762;2022-09-24T03:51:59;2.10;;;1.90;;
17504;SDS011;8870;50.950;11.762;2022-09-24T03:57:34;4.90;;;1.58;;
17504;SDS011;8870;50.950;11.762;2022-09-24T04:02:52;1.88;;;1.70;;
17504;SDS011;8870;50.950;11.762;2022-09-24T04:08:23;1.50;;;1.35;;
17504;SDS011;8870;50.950;11.762;2022-09-24T04:19:16;2.38;;;1.83;;
17504;SDS011;8870;50.950;11.762;2022-09-24T04:24:54;1.70;;;1.58;;
17504;SDS011;8870;50.950;11.762;2022-09-24T04:30:21;1.90;;;1.55;;
17504;SDS011;8870;50.950;11.762;2022-09-24T04:35:54;3.38;;;1.52;;
17504;SDS011;8870;50.950;11.762;2022-09-24T04:41:13;1.90;;;1.45;;
17504;SDS011;8870;50.950;11.762;2022-09-24T04:46:47;2.10;;;1.60;;
17504;SDS011;8870;50.950;11.762;2022-09-24T04:52:05;2.03;;;1.55;;
17504;SDS011;8870;50.950;11.762;2022-09-24T04:57:38;1.73;;;1.50;;
17504;SDS011;8870;50.950;11.762;2022-09-24T05:03:13;2.10;;;1.42;;
17504;SDS011;8870;50.950;11.762;2022-09-24T05:19:54;1.70;;;1.42;;
17504;SDS011;8870;50.950;11.762;2022-09-24T05:25:25;1.60;;;1.50;;
17504;SDS011;8870;50.950;11.762;2022-09-24T05:30:43;2.88;;;1.60;;
17504;SDS011;8870;50.950;11.762;2022-09-24T05:36:18;2.35;;;1.60;;
17504;SDS011;8870;50.950;11.762;2022-09-24T05:41:36;1.83;;;1.50;;
17504;SDS011;8870;50.950;11.762;2022-09-24T05:47:10;1.90;;;1.70;;
17504;SDS011;8870;50.950;11.762;2022-09-24T05:52:32;2.35;;;1.50;;
17504;SDS011;8870;50.950;11.762;2022-09-24T05:58:05;1.95;;;1.70;;
17504;SDS011;8870;50.950;11.762;2022-09-24T06:03:24;2.75;;;1.55;;
17504;SDS011;8870;50.950;11.762;2022-09-24T06:08:59;1.60;;;1.50;;
17504;SDS011;8870;50.950;11.762;2022-09-24T06:14:33;2.75;;;1.55;;
17504;SDS011;8870;50.950;11.762;2022-09-24T06:19:51;3.03;;;1.60;;
17504;SDS011;8870;50.950;11.762;2022-09-24T06:25:25;2.97;;;1.70;;
17504;SDS011;8870;50.950;11.762;2022-09-24T06:30:44;2.00;;;1.70;;
17504;SDS011;8870;50.950;11.762;2022-09-24T06:36:15;2.22;;;1.60;;
17504;SDS011;8870;50.950;11.762;2022-09-24T06:41:36;1.90;;;1.63;;
17504;SDS011;8870;50.950;11.762;2022-09-24T06:47:13;2.45;;;1.63;;
17504;SDS011;8870;50.950;11.762;2022-09-24T06:52:31;1.85;;;1.50;;
17504;SDS011;8870;50.950;11.762;2022-09-24T06:58:06;3.42;;;2.00;;
17504;SDS011;8870;50.950;11.762;2022-09-24T07:03:27;2.65;;;1.52;;
17504;SDS011;8870;50.950;11.762;2022-09-24T07:09:00;2.78;;;1.80;;
17504;SDS011;8870;50.950;11.762;2022-09-24T07:14:34;2.33;;;1.70;;
17504;SDS011;8870;50.950;11.762;2022-09-24T07:20:02;1.83;;;1.60;;
17504;SDS011;8870;50.950;11.762;2022-09-24T07:25:36;2.55;;;1.90;;
17504;SDS011;8870;50.950;11.762;2022-09-24T07:30:57;2.13;;;1.60;;
17504;SDS011;8870;50.950;11.762;2022-09-24T07:36:31;3.15;;;1.63;;
17504;SDS011;8870;50.950;11.762;2022-09-24T07:41:48;2.85;;;1.70;;
17504;SDS011;8870;50.950;11.762;2022-09-24T07:47:24;3.53;;;1.60;;
17504;SDS011;8870;50.950;11.762;2022-09-24T07:52:42;2.53;;;1.77;;
17504;SDS011;8870;50.950;11.762;2022-09-24T07:58:19;3.03;;;1.38;;
17504;SDS011;8870;50.950;11.762;2022-09-24T08:03:40;1.65;;;1.35;;
17504;SDS011;8870;50.950;11.762;2022-09-24T08:09:13;2.00;;;1.40;;
17504;SDS011;8870;50.950;11.762;2022-09-24T08:14:45;3.45;;;1.60;;
17504;SDS011;8870;50.950;11.762;2022-09-24T08:20:07;2.00;;;1.50;;
17504;SDS011;8870;50.950;11.762;2022-09-24T08:25:39;2.95;;;1.27;;
17504;SDS011;8870;50.950;11.762;2022-09-24T08:30:58;1.60;;;1.30;;
17504;SDS011;8870;50.950;11.762;2022-09-24T08:36:34;2.15;;;1.30;;
17504;SDS011;8870;50.950;11.762;2022-09-24T08:41:53;1.75;;;1.42;;
17504;SDS011;8870;50.950;11.762;2022-09-24T08:47:32;2.33;;;1.48;;
17504;SDS011;8870;50.950;11.762;2022-09-24T08:53:02;1.92;;;1.20;;
17504;SDS011;8870;50.950;11.762;2022-09-24T08:58:43;1.63;;;1.30;;
17504;SDS011;8870;50.950;11.762;2022-09-24T09:04:10;1.90;;;1.20;;
17504;SDS011;8870;50.950;11.762;2022-09-24T09:09:55;1.30;;;1.10;;
17504;SDS011;8870;50.950;11.762;2022-09-24T09:15:18;2.15;;;1.10;;
17504;SDS011;8870;50.950;11.762;2022-09-24T09:20:51;1.63;;;1.30;;
17504;SDS011;8870;50.950;11.762;2022-09-24T09:26:16;1.30;;;1.20;;
17504;SDS011;8870;50.950;11.762;2022-09-24T09:31:52;1.25;;;1.00;;
17504;SDS011;8870;50.950;11.762;2022-09-24T09:37:37;3.85;;;1.13;;
17504;SDS011;8870;50.950;11.762;2022-09-24T09:43:16;1.05;;;0.93;;
17504;SDS011;8870;50.950;11.762;2022-09-24T09:48:38;1.85;;;1.08;;
17504;SDS011;8870;50.950;11.762;2022-09-24T09:54:17;2.30;;;1.10;;
17504;SDS011;8870;50.950;11.762;2022-09-24T09:59:38;1.65;;;0.93;;
17504;SDS011;8870;50.950;11.762;2022-09-24T10:05:20;1.33;;;1.05;;
17504;SDS011;8870;50.950;11.762;2022-09-24T10:10:42;2.25;;;1.00;;
17504;SDS011;8870;50.950;11.762;2022-09-24T10:16:26;1.60;;;1.00;;
17504;SDS011;8870;50.950;11.762;2022-09-24T10:21:44;3.58;;;1.02;;
17504;SDS011;8870;50.950;11.762;2022-09-24T10:27:18;1.20;;;1.00;;
17504;SDS011;8870;50.950;11.762;2022-09-24T10:32:54;2.15;;;1.00;;
17504;SDS011;8870;50.950;11.762;2022-09-24T10:38:26;1.63;;;0.90;;
17504;SDS011;8870;50.950;11.762;2022-09-24T10:43:49;2.00;;;0.90;;
17504;SDS011;8870;50.950;11.762;2022-09-24T10:55:13;0.73;;;0.60;;
17504;SDS011;8870;50.950;11.762;2022-09-24T11:00:54;0.90;;;0.85;;
17504;SDS011;8870;50.950;11.762;2022-09-24T11:06:37;1.67;;;1.10;;
17504;SDS011;8870;50.950;11.762;2022-09-24T11:12:18;2.05;;;1.00;;
17504;SDS011;8870;50.950;11.762;2022-09-24T11:17:48;2.45;;;1.00;;
17504;SDS011;8870;50.950;11.762;2022-09-24T11:29:34;1.95;;;0.93;;
17504;SDS011;8870;50.950;11.762;2022-09-24T11:35:23;1.58;;;1.10;;
17504;SDS011;8870;50.950;11.762;2022-09-24T11:41:08;1.33;;;0.90;;
17504;SDS011;8870;50.950;11.762;2022-09-24T11:46:57;1.67;;;1.10;;
17504;SDS011;8870;50.950;11.762;2022-09-24T11:52:29;1.40;;;0.70;;
17504;SDS011;8870;50.950;11.762;2022-09-24T11:58:12;1.35;;;0.90;;
17504;SDS011;8870;50.950;11.762;2022-09-24T12:03:34;1.63;;;0.90;;
17504;SDS011;8870;50.950;11.762;2022-09-24T12:08:57;1.10;;;0.80;;
17504;SDS011;8870;50.950;11.762;2022-09-24T12:14:40;1.30;;;0.70;;
17504;SDS011;8870;50.950;11.762;2022-09-24T12:25:57;1.30;;;0.80;;
17504;SDS011;8870;50.950;11.762;2022-09-24T12:31:36;1.30;;;0.80;;
17504;SDS011;8870;50.950;11.762;2022-09-24T12:37:28;1.40;;;0.80;;
17504;SDS011;8870;50.950;11.762;2022-09-24T12:42:53;2.38;;;0.82;;
17504;SDS011;8870;50.950;11.762;2022-09-24T12:48:31;2.40;;;0.93;;
17504;SDS011;8870;50.950;11.762;2022-09-24T12:53:56;1.48;;;0.90;;
17504;SDS011;8870;50.950;11.762;2022-09-24T12:59:28;1.38;;;0.80;;
17504;SDS011;8870;50.950;11.762;2022-09-24T13:05:02;5.25;;;0.98;;
17504;SDS011;8870;50.950;11.762;2022-09-24T13:10:52;3.55;;;1.00;;
17504;SDS011;8870;50.950;11.762;2022-09-24T13:16:15;3.33;;;0.90;;
17504;SDS011;8870;50.950;11.762;2022-09-24T13:21:54;4.35;;;0.85;;
17504;SDS011;8870;50.950;11.762;2022-09-24T13:27:22;1.83;;;0.80;;
17504;SDS011;8870;50.950;11.762;2022-09-24T13:33:08;1.13;;;0.70;;
17504;SDS011;8870;50.950;11.762;2022-09-24T13:38:44;1.95;;;0.82;;
17504;SDS011;8870;50.950;11.762;2022-09-24T13:44:24;5.07;;;0.90;;
17504;SDS011;8870;50.950;11.762;2022-09-24T13:49:46;1.85;;;0.90;;
17504;SDS011;8870;50.950;11.762;2022-09-24T13:55:23;3.25;;;0.95;;
17504;SDS011;8870;50.950;11.762;2022-09-24T14:00:47;1.83;;;0.90;;
17504;SDS011;8870;50.950;11.762;2022-09-24T14:06:31;2.08;;;0.75;;
17504;SDS011;8870;50.950;11.762;2022-09-24T14:11:53;2.88;;;0.75;;
17504;SDS011;8870;50.950;11.762;2022-09-24T14:17:29;1.10;;;0.75;;
17504;SDS011;8870;50.950;11.762;2022-09-24T14:22:46;1.17;;;0.77;;
17504;SDS011;8870;50.950;11.762;2022-09-24T14:28:20;0.82;;;0.63;;
17504;SDS011;8870;50.950;11.762;2022-09-24T14:33:45;0.93;;;0.63;;
17504;SDS011;8870;50.950;11.762;2022-09-24T14:39:16;2.20;;;0.70;;
17504;SDS011;8870;50.950;11.762;2022-09-24T14:44:37;2.58;;;0.60;;
17504;SDS011;8870;50.950;11.762;2022-09-24T14:50:24;1.85;;;0.70;;
17504;SDS011;8870;50.950;11.762;2022-09-24T14:55:45;1.85;;;0.75;;
17504;SDS011;8870;50.950;11.762;2022-09-24T15:01:21;1.50;;;0.70;;
17504;SDS011;8870;50.950;11.762;2022-09-24T15:06:46;0.95;;;0.52;;
17504;SDS011;8870;50.950;11.762;2022-09-24T15:12:19;1.05;;;0.60;;
17504;SDS011;8870;50.950;11.762;2022-09-24T15:17:47;0.93;;;0.68;;
17504;SDS011;8870;50.950;11.762;2022-09-24T15:23:18;0.95;;;0.73;;
17504;SDS011;8870;50.950;11.762;2022-09-24T15:28:37;0.90;;;0.60;;
17504;SDS011;8870;50.950;11.762;2022-09-24T15:34:11;0.80;;;0.55;;
17504;SDS011;8870;50.950;11.762;2022-09-24T15:39:29;0.75;;;0.52;;
17504;SDS011;8870;50.950;11.762;2022-09-24T15:45:05;1.13;;;0.73;;
17504;SDS011;8870;50.950;11.762;2022-09-24T15:50:35;1.25;;;0.80;;
17504;SDS011;8870;50.950;11.762;2022-09-24T15:55:55;0.93;;;0.73;;
17504;SDS011;8870;50.950;11.762;2022-09-24T16:01:29;1.38;;;0.73;;
17504;SDS011;8870;50.950;11.762;2022-09-24T16:06:49;2.95;;;1.10;;
17504;SDS011;8870;50.950;11.762;2022-09-24T16:12:21;1.63;;;1.20;;
17504;SDS011;8870;50.950;11.762;2022-09-24T16:17:42;1.70;;;1.35;;
17504;SDS011;8870;50.950;11.762;2022-09-24T16:23:16;2.03;;;0.90;;
17504;SDS011;8870;50.950;11.762;2022-09-24T16:28:41;3.53;;;1.30;;
17504;SDS011;8870;50.950;11.762;2022-09-24T16:34:12;3.97;;;1.75;;
17504;SDS011;8870;50.950;11.762;2022-09-24T16:39:33;2.03;;;1.52;;
17504;SDS011;8870;50.950;11.762;2022-09-24T16:45:05;2.95;;;1.30;;
17504;SDS011;8870;50.950;11.762;2022-09-24T16:50:26;5.70;;;1.38;;
17504;SDS011;8870;50.950;11.762;2022-09-24T16:56:04;1.30;;;1.20;;
17504;SDS011;8870;50.950;11.762;2022-09-24T17:01:24;2.92;;;1.20;;
17504;SDS011;8870;50.950;11.762;2022-09-24T17:06:57;2.72;;;1.30;;
17504;SDS011;8870;50.950;11.762;2022-09-24T17:12:17;2.60;;;1.20;;
17504;SDS011;8870;50.950;11.762;2022-09-24T17:17:49;3.55;;;1.20;;
17504;SDS011;8870;50.950;11.762;2022-09-24T17:23:07;1.95;;;1.30;;
17504;SDS011;8870;50.950;11.762;2022-09-24T17:28:41;1.33;;;1.20;;
17504;SDS011;8870;50.950;11.762;2022-09-24T17:34:02;3.33;;;1.30;;
17504;SDS011;8870;50.950;11.762;2022-09-24T17:39:35;5.45;;;1.48;;
17504;SDS011;8870;50.950;11.762;2022-09-24T17:44:56;2.67;;;1.30;;
17504;SDS011;8870;50.950;11.762;2022-09-24T17:50:27;3.13;;;1.38;;
17504;SDS011;8870;50.950;11.762;2022-09-24T17:55:47;2.08;;;1.30;;
17504;SDS011;8870;50.950;11.762;2022-09-24T18:01:22;2.78;;;1.25;;
17504;SDS011;8870;50.950;11.762;2022-09-24T18:06:42;2.85;;;1.40;;
17504;SDS011;8870;50.950;11.762;2022-09-24T18:12:14;2.47;;;1.42;;
17504;SDS011;8870;50.950;11.762;2022-09-24T18:17:35;5.57;;;1.75;;
17504;SDS011;8870;50.950;11.762;2022-09-24T18:23:06;3.92;;;1.60;;
17504;SDS011;8870;50.950;11.762;2022-09-24T18:28:25;5.30;;;1.35;;
17504;SDS011;8870;50.950;11.762;2022-09-24T18:34:00;3.75;;;1.70;;
17504;SDS011;8870;50.950;11.762;2022-09-24T18:39:21;2.47;;;1.80;;
17504;SDS011;8870;50.950;11.762;2022-09-24T18:44:53;4.78;;;1.60;;
17504;SDS011;8870;50.950;11.762;2022-09-24T18:50:14;4.38;;;1.60;;
17504;SDS011;8870;50.950;11.762;2022-09-24T18:55:46;5.97;;;1.80;;
17504;SDS011;8870;50.950;11.762;2022-09-24T19:01:14;3.78;;;1.60;;
17504;SDS011;8870;50.950;11.762;2022-09-24T19:06:48;3.40;;;1.77;;
17504;SDS011;8870;50.950;11.762;2022-09-24T19:12:21;2.85;;;1.60;;
17504;SDS011;8870;50.950;11.762;2022-09-24T19:17:40;3.72;;;1.83;;
17504;SDS011;8870;50.950;11.762;2022-09-24T19:23:16;2.22;;;1.77;;
17504;SDS011;8870;50.950;11.762;2022-09-24T19:28:35;2.08;;;1.40;;
17504;SDS011;8870;50.950;11.762;2022-09-24T19:34:11;3.30;;;1.60;;
17504;SDS011;8870;50.950;11.762;2022-09-24T19:39:40;3.35;;;1.65;;
17504;SDS011;8870;50.950;11.762;2022-09-24T19:45:13;6.20;;;2.13;;
17504;SDS011;8870;50.950;11.762;2022-09-24T19:50:31;4.57;;;1.85;;
17504;SDS011;8870;50.950;11.762;2022-09-24T19:56:05;8.18;;;2.05;;
17504;SDS011;8870;50.950;11.762;2022-09-24T20:01:25;3.88;;;1.60;;
17504;SDS011;8870;50.950;11.762;2022-09-24T20:06:58;3.30;;;1.70;;
17504;SDS011;8870;50.950;11.762;2022-09-24T20:12:18;4.40;;;1.58;;
17504;SDS011;8870;50.950;11.762;2022-09-24T20:17:50;2.03;;;1.60;;
17504;SDS011;8870;50.950;11.762;2022-09-24T20:23:15;3.15;;;1.80;;
17504;SDS011;8870;50.950;11.762;2022-09-24T20:28:49;4.53;;;2.00;;
17504;SDS011;8870;50.950;11.762;2022-09-24T20:34:08;5.53;;;2.40;;
17504;SDS011;8870;50.950;11.762;2022-09-24T20:39:39;3.40;;;2.47;;
17504;SDS011;8870;50.950;11.762;2022-09-24T20:44:59;3.08;;;2.25;;
17504;SDS011;8870;50.950;11.762;2022-09-24T20:50:32;3.85;;;1.98;;
17504;SDS011;8870;50.950;11.762;2022-09-24T20:55:52;5.60;;;2.10;;
17504;SDS011;8870;50.950;11.762;2022-09-24T21:01:25;4.45;;;2.08;;
17504;SDS011;8870;50.950;11.762;2022-09-24T21:06:44;2.55;;;2.20;;
17504;SDS011;8870;50.950;11.762;2022-09-24T21:12:16;4.05;;;2.50;;
17504;SDS011;8870;50.950;11.762;2022-09-24T21:17:36;3.08;;;2.30;;
17504;SDS011;8870;50.950;11.762;2022-09-24T21:23:28;3.65;;;2.53;;
17504;SDS011;8870;50.950;11.762;2022-09-24T21:28:46;4.70;;;2.70;;
17504;SDS011;8870;50.950;11.762;2022-09-24T21:34:21;4.40;;;2.58;;
17504;SDS011;8870;50.950;11.762;2022-09-24T21:39:40;4.00;;;2.88;;
17504;SDS011;8870;50.950;11.762;2022-09-24T21:45:12;4.00;;;2.75;;
17504;SDS011;8870;50.950;11.762;2022-09-24T21:50:32;3.00;;;2.70;;
17504;SDS011;8870;50.950;11.762;2022-09-24T21:56:05;3.08;;;2.65;;
17504;SDS011;8870;50.950;11.762;2022-09-24T22:01:23;3.88;;;2.88;;
17504;SDS011;8870;50.950;11.762;2022-09-24T22:06:59;3.63;;;2.97;;
17504;SDS011;8870;50.950;11.762;2022-09-24T22:12:32;3.55;;;2.67;;
17504;SDS011;8870;50.950;11.762;2022-09-24T22:17:51;4.00;;;2.88;;
17504;SDS011;8870;50.950;11.762;2022-09-24T22:23:24;2.83;;;2.63;;
17504;SDS011;8870;50.950;11.762;2022-09-24T22:28:42;4.03;;;2.75;;
17504;SDS011;8870;50.950;11.762;2022-09-24T22:34:14;3.50;;;2.80;;
17504;SDS011;8870;50.950;11.762;2022-09-24T22:39:46;5.25;;;3.25;;
17504;SDS011;8870;50.950;11.762;2022-09-24T22:45:18;4.80;;;3.00;;
17504;SDS011;8870;50.950;11.762;2022-09-24T22:50:36;3.80;;;3.22;;
17504;SDS011;8870;50.950;11.762;2022-09-24T22:56:10;3.90;;;3.25;;
17504;SDS011;8870;50.950;11.762;2022-09-24T23:01:30;3.83;;;3.47;;
17504;SDS011;8870;50.950;11.762;2022-09-24T23:07:02;6.63;;;3.70;;
17504;SDS011;8870;50.950;11.762;2022-09-24T23:12:22;3.40;;;2.90;;
17504;SDS011;8870;50.950;11.762;2022-09-24T23:17:54;4.50;;;3.20;;
17504;SDS011;8870;50.950;11.762;2022-09-24T23:23:12;5.80;;;3.60;;
17504;SDS011;8870;50.950;11.762;2022-09-24T23:28:45;3.53;;;3.05;;
17504;SDS011;8870;50.950;11.762;2022-09-24T23:34:06;3.42;;;3.13;;
17504;SDS011;8870;50.950;11.762;2022-09-24T23:39:37;3.65;;;3.30;;
17504;SDS011;8870;50.950;11.762;2022-09-24T23:44:58;4.43;;;3.28;;
17504;SDS011;8870;50.950;11.762;2022-09-24T23:50:30;4.97;;;3.40;;
17504;SDS011;8870;50.950;11.762;2022-09-24T23:55:49;4.18;;;3.70;;
